sensor_id;sensor_type;location;lat;lon;timestamp;P1;durP1;ratioP1;P2;durP2;ratioP2
21671;SDS011;10997;52.242;8.168;2024-02-15T00:03:27;37.22;;;29.05;;
21671;SDS011;10997;52.242;8.168;2024-02-15T00:08:31;38.20;;;29.38;;
21671;SDS011;10997;52.242;8.168;2024-02-15T00:13:32;38.03;;;29.30;;
21671;SDS011;10997;52.242;8.168;2024-02-15T00:18:33;39.67;;;29.27;;
21671;SDS011;10997;52.242;8.168;2024-02-15T00:23:34;38.60;;;28.00;;
21671;SDS011;10997;52.242;8.168;2024-02-15T00:28:35;36.30;;;29.02;;
21671;SDS011;10997;52.242;8.168;2024-02-15T00:33:35;38.42;;;29.13;;
21671;SDS011;10997;52.242;8.168;2024-02-15T00:38:36;37.83;;;28.27;;
21671;SDS011;10997;52.242;8.168;2024-02-15T00:43:37;36.83;;;28.40;;
21671;SDS011;10997;52.242;8.168;2024-02-15T00:48:38;37.88;;;28.45;;
21671;SDS011;10997;52.242;8.168;2024-02-15T00:53:40;35.13;;;27.10;;
21671;SDS011;10997;52.242;8.168;2024-02-15T00:58:40;33.08;;;24.48;;
21671;SDS011;10997;52.242;8.168;2024-02-15T01:03:41;30.85;;;24.00;;
21671;SDS011;10997;52.242;8.168;2024-02-15T01:08:41;30.77;;;23.50;;
21671;SDS011;10997;52.242;8.168;2024-02-15T01:13:42;28.10;;;21.80;;
21671;SDS011;10997;52.242;8.168;2024-02-15T01:18:45;25.25;;;19.60;;
21671;SDS011;10997;52.242;8.168;2024-02-15T01:23:46;26.38;;;19.75;;
21671;SDS011;10997;52.242;8.168;2024-02-15T01:28:47;26.20;;;19.92;;
21671;SDS011;10997;52.242;8.168;2024-02-15T01:33:48;27.10;;;21.80;;
21671;SDS011;10997;52.242;8.168;2024-02-15T01:38:48;25.48;;;19.92;;
21671;SDS011;10997;52.242;8.168;2024-02-15T01:43:49;27.27;;;21.13;;
21671;SDS011;10997;52.242;8.168;2024-02-15T01:48:50;28.77;;;20.50;;
21671;SDS011;10997;52.242;8.168;2024-02-15T01:53:51;25.85;;;20.08;;
21671;SDS011;10997;52.242;8.168;2024-02-15T01:58:53;27.08;;;20.60;;
21671;SDS011;10997;52.242;8.168;2024-02-15T02:03:53;25.48;;;20.25;;
21671;SDS011;10997;52.242;8.168;2024-02-15T02:08:55;27.77;;;21.60;;
21671;SDS011;10997;52.242;8.168;2024-02-15T02:13:56;30.17;;;20.65;;
21671;SDS011;10997;52.242;8.168;2024-02-15T02:18:57;27.50;;;21.17;;
21671;SDS011;10997;52.242;8.168;2024-02-15T02:23:58;25.30;;;19.25;;
21671;SDS011;10997;52.242;8.168;2024-02-15T02:29:00;23.38;;;17.73;;
21671;SDS011;10997;52.242;8.168;2024-02-15T02:34:04;21.08;;;15.77;;
21671;SDS011;10997;52.242;8.168;2024-02-15T02:39:07;19.20;;;14.60;;
21671;SDS011;10997;52.242;8.168;2024-02-15T02:44:08;19.52;;;14.23;;
21671;SDS011;10997;52.242;8.168;2024-02-15T02:49:09;16.70;;;13.70;;
21671;SDS011;10997;52.242;8.168;2024-02-15T02:54:09;18.80;;;12.65;;
21671;SDS011;10997;52.242;8.168;2024-02-15T02:59:11;18.13;;;13.45;;
21671;SDS011;10997;52.242;8.168;2024-02-15T03:04:14;17.67;;;13.00;;
21671;SDS011;10997;52.242;8.168;2024-02-15T03:09:17;18.95;;;13.32;;
21671;SDS011;10997;52.242;8.168;2024-02-15T03:14:17;18.17;;;13.57;;
21671;SDS011;10997;52.242;8.168;2024-02-15T03:19:18;23.30;;;16.92;;
21671;SDS011;10997;52.242;8.168;2024-02-15T03:24:18;21.75;;;15.95;;
21671;SDS011;10997;52.242;8.168;2024-02-15T03:29:19;28.67;;;17.85;;
21671;SDS011;10997;52.242;8.168;2024-02-15T03:34:20;25.88;;;17.83;;
21671;SDS011;10997;52.242;8.168;2024-02-15T03:39:21;29.17;;;19.85;;
21671;SDS011;10997;52.242;8.168;2024-02-15T03:44:23;33.03;;;22.00;;
21671;SDS011;10997;52.242;8.168;2024-02-15T03:49:25;37.03;;;23.60;;
21671;SDS011;10997;52.242;8.168;2024-02-15T03:54:26;40.90;;;25.25;;
21671;SDS011;10997;52.242;8.168;2024-02-15T03:59:29;40.35;;;26.27;;
21671;SDS011;10997;52.242;8.168;2024-02-15T04:04:32;43.53;;;27.30;;
21671;SDS011;10997;52.242;8.168;2024-02-15T04:09:33;46.53;;;28.60;;
21671;SDS011;10997;52.242;8.168;2024-02-15T04:14:35;49.50;;;29.80;;
21671;SDS011;10997;52.242;8.168;2024-02-15T04:19:38;45.05;;;29.40;;
21671;SDS011;10997;52.242;8.168;2024-02-15T04:24:39;42.97;;;28.63;;
21671;SDS011;10997;52.242;8.168;2024-02-15T04:29:40;42.75;;;27.33;;
21671;SDS011;10997;52.242;8.168;2024-02-15T04:34:41;46.97;;;29.45;;
21671;SDS011;10997;52.242;8.168;2024-02-15T04:39:42;51.90;;;32.55;;
21671;SDS011;10997;52.242;8.168;2024-02-15T04:44:43;56.40;;;35.78;;
21671;SDS011;10997;52.242;8.168;2024-02-15T04:49:44;62.55;;;37.78;;
21671;SDS011;10997;52.242;8.168;2024-02-15T04:54:44;62.85;;;36.45;;
21671;SDS011;10997;52.242;8.168;2024-02-15T04:59:45;67.90;;;39.83;;
21671;SDS011;10997;52.242;8.168;2024-02-15T05:04:47;79.85;;;42.90;;
21671;SDS011;10997;52.242;8.168;2024-02-15T05:09:48;79.78;;;44.60;;
21671;SDS011;10997;52.242;8.168;2024-02-15T05:14:49;105.03;;;50.88;;
21671;SDS011;10997;52.242;8.168;2024-02-15T05:19:50;107.28;;;53.25;;
21671;SDS011;10997;52.242;8.168;2024-02-15T05:24:51;115.07;;;53.60;;
21671;SDS011;10997;52.242;8.168;2024-02-15T05:29:52;114.90;;;56.78;;
21671;SDS011;10997;52.242;8.168;2024-02-15T05:34:52;113.55;;;55.00;;
21671;SDS011;10997;52.242;8.168;2024-02-15T05:39:54;107.15;;;53.42;;
21671;SDS011;10997;52.242;8.168;2024-02-15T05:44:55;98.68;;;50.75;;
21671;SDS011;10997;52.242;8.168;2024-02-15T05:50:15;104.72;;;51.90;;
21671;SDS011;10997;52.242;8.168;2024-02-15T05:55:15;97.68;;;50.15;;
21671;SDS011;10997;52.242;8.168;2024-02-15T06:00:17;100.32;;;50.13;;
21671;SDS011;10997;52.242;8.168;2024-02-15T06:05:19;106.53;;;49.20;;
21671;SDS011;10997;52.242;8.168;2024-02-15T06:10:19;98.47;;;49.05;;
21671;SDS011;10997;52.242;8.168;2024-02-15T06:15:20;103.93;;;50.03;;
21671;SDS011;10997;52.242;8.168;2024-02-15T06:20:21;101.30;;;49.70;;
21671;SDS011;10997;52.242;8.168;2024-02-15T06:25:24;88.80;;;48.47;;
21671;SDS011;10997;52.242;8.168;2024-02-15T06:30:25;89.25;;;47.53;;
21671;SDS011;10997;52.242;8.168;2024-02-15T06:35:44;79.38;;;43.45;;
21671;SDS011;10997;52.242;8.168;2024-02-15T06:41:03;74.57;;;40.58;;
21671;SDS011;10997;52.242;8.168;2024-02-15T06:46:06;67.53;;;38.58;;
21671;SDS011;10997;52.242;8.168;2024-02-15T06:51:06;63.60;;;36.50;;
21671;SDS011;10997;52.242;8.168;2024-02-15T06:56:13;62.70;;;36.25;;
21671;SDS011;10997;52.242;8.168;2024-02-15T07:01:14;57.70;;;34.00;;
21671;SDS011;10997;52.242;8.168;2024-02-15T07:06:16;53.80;;;31.20;;
21671;SDS011;10997;52.242;8.168;2024-02-15T07:11:17;58.25;;;33.58;;
21671;SDS011;10997;52.242;8.168;2024-02-15T07:16:17;49.75;;;28.52;;
21671;SDS011;10997;52.242;8.168;2024-02-15T07:21:19;55.67;;;29.05;;
21671;SDS011;10997;52.242;8.168;2024-02-15T07:26:23;49.47;;;25.03;;
21671;SDS011;10997;52.242;8.168;2024-02-15T07:31:27;39.45;;;24.70;;
21671;SDS011;10997;52.242;8.168;2024-02-15T07:36:29;44.28;;;24.63;;
21671;SDS011;10997;52.242;8.168;2024-02-15T07:41:30;38.72;;;22.70;;
21671;SDS011;10997;52.242;8.168;2024-02-15T07:46:32;35.90;;;21.67;;
21671;SDS011;10997;52.242;8.168;2024-02-15T07:51:34;35.20;;;20.15;;
21671;SDS011;10997;52.242;8.168;2024-02-15T07:56:36;33.08;;;19.85;;
21671;SDS011;10997;52.242;8.168;2024-02-15T08:01:36;31.02;;;16.35;;
21671;SDS011;10997;52.242;8.168;2024-02-15T08:06:40;29.00;;;15.77;;
21671;SDS011;10997;52.242;8.168;2024-02-15T08:11:41;27.92;;;16.42;;
21671;SDS011;10997;52.242;8.168;2024-02-15T08:16:42;27.08;;;15.45;;
21671;SDS011;10997;52.242;8.168;2024-02-15T08:21:43;21.85;;;14.68;;
21671;SDS011;10997;52.242;8.168;2024-02-15T08:26:46;24.98;;;14.30;;
21671;SDS011;10997;52.242;8.168;2024-02-15T08:31:47;20.85;;;13.68;;
21671;SDS011;10997;52.242;8.168;2024-02-15T08:36:49;19.45;;;13.40;;
21671;SDS011;10997;52.242;8.168;2024-02-15T08:41:50;19.77;;;12.82;;
21671;SDS011;10997;52.242;8.168;2024-02-15T08:46:51;17.90;;;11.73;;
21671;SDS011;10997;52.242;8.168;2024-02-15T08:51:52;22.80;;;15.10;;
21671;SDS011;10997;52.242;8.168;2024-02-15T08:56:53;16.13;;;11.95;;
21671;SDS011;10997;52.242;8.168;2024-02-15T09:01:55;20.95;;;12.63;;
21671;SDS011;10997;52.242;8.168;2024-02-15T09:06:56;17.58;;;11.35;;
21671;SDS011;10997;52.242;8.168;2024-02-15T09:11:56;15.38;;;10.45;;
21671;SDS011;10997;52.242;8.168;2024-02-15T09:16:57;14.30;;;9.93;;
21671;SDS011;10997;52.242;8.168;2024-02-15T09:21:58;12.98;;;9.25;;
21671;SDS011;10997;52.242;8.168;2024-02-15T09:26:59;13.93;;;8.70;;
21671;SDS011;10997;52.242;8.168;2024-02-15T09:32:01;14.93;;;8.85;;
21671;SDS011;10997;52.242;8.168;2024-02-15T09:37:02;16.48;;;8.63;;
21671;SDS011;10997;52.242;8.168;2024-02-15T09:42:03;15.35;;;8.93;;
21671;SDS011;10997;52.242;8.168;2024-02-15T09:47:04;16.55;;;8.23;;
21671;SDS011;10997;52.242;8.168;2024-02-15T09:52:06;11.60;;;7.60;;
21671;SDS011;10997;52.242;8.168;2024-02-15T09:57:11;16.73;;;8.40;;
21671;SDS011;10997;52.242;8.168;2024-02-15T10:02:12;12.30;;;7.57;;
21671;SDS011;10997;52.242;8.168;2024-02-15T10:07:14;13.18;;;7.15;;
21671;SDS011;10997;52.242;8.168;2024-02-15T10:12:15;11.65;;;7.13;;
21671;SDS011;10997;52.242;8.168;2024-02-15T10:17:15;13.05;;;7.25;;
21671;SDS011;10997;52.242;8.168;2024-02-15T10:22:17;13.55;;;7.55;;
21671;SDS011;10997;52.242;8.168;2024-02-15T10:27:24;14.25;;;7.22;;
21671;SDS011;10997;52.242;8.168;2024-02-15T10:32:24;8.88;;;6.75;;
21671;SDS011;10997;52.242;8.168;2024-02-15T10:37:34;9.00;;;6.38;;
21671;SDS011;10997;52.242;8.168;2024-02-15T10:42:36;11.38;;;7.25;;
21671;SDS011;10997;52.242;8.168;2024-02-15T10:47:37;14.90;;;7.63;;
21671;SDS011;10997;52.242;8.168;2024-02-15T10:52:43;12.73;;;9.10;;
21671;SDS011;10997;52.242;8.168;2024-02-15T10:57:53;12.60;;;8.27;;
21671;SDS011;10997;52.242;8.168;2024-02-15T11:03:03;17.33;;;8.30;;
21671;SDS011;10997;52.242;8.168;2024-02-15T11:08:08;11.15;;;6.90;;
21671;SDS011;10997;52.242;8.168;2024-02-15T11:13:10;10.45;;;7.25;;
21671;SDS011;10997;52.242;8.168;2024-02-15T11:18:11;7.68;;;5.70;;
21671;SDS011;10997;52.242;8.168;2024-02-15T11:23:12;6.10;;;5.20;;
21671;SDS011;10997;52.242;8.168;2024-02-15T11:38:29;6.30;;;4.20;;
21671;SDS011;10997;52.242;8.168;2024-02-15T11:48:48;5.95;;;4.10;;
21671;SDS011;10997;52.242;8.168;2024-02-15T11:54:08;7.10;;;3.90;;
21671;SDS011;10997;52.242;8.168;2024-02-15T11:59:11;10.52;;;4.35;;
21671;SDS011;10997;52.242;8.168;2024-02-15T12:04:18;8.63;;;4.10;;
21671;SDS011;10997;52.242;8.168;2024-02-15T12:09:38;7.68;;;4.53;;
21671;SDS011;10997;52.242;8.168;2024-02-15T12:15:00;8.10;;;3.47;;
21671;SDS011;10997;52.242;8.168;2024-02-15T12:20:20;10.85;;;3.78;;
21671;SDS011;10997;52.242;8.168;2024-02-15T12:25:24;9.40;;;2.85;;
21671;SDS011;10997;52.242;8.168;2024-02-15T12:30:25;8.25;;;3.08;;
21671;SDS011;10997;52.242;8.168;2024-02-15T12:35:32;8.00;;;2.90;;
21671;SDS011;10997;52.242;8.168;2024-02-15T12:40:33;7.05;;;3.13;;
21671;SDS011;10997;52.242;8.168;2024-02-15T12:45:36;55.70;;;50.20;;
21671;SDS011;10997;52.242;8.168;2024-02-15T12:50:38;13.02;;;7.68;;
21671;SDS011;10997;52.242;8.168;2024-02-15T12:55:39;7.95;;;2.70;;
21671;SDS011;10997;52.242;8.168;2024-02-15T13:00:40;5.28;;;2.45;;
21671;SDS011;10997;52.242;8.168;2024-02-15T13:05:41;5.72;;;2.40;;
21671;SDS011;10997;52.242;8.168;2024-02-15T13:10:42;5.78;;;2.22;;
21671;SDS011;10997;52.242;8.168;2024-02-15T13:15:42;6.15;;;2.42;;
21671;SDS011;10997;52.242;8.168;2024-02-15T13:20:44;7.90;;;2.58;;
21671;SDS011;10997;52.242;8.168;2024-02-15T13:25:44;8.38;;;3.20;;
21671;SDS011;10997;52.242;8.168;2024-02-15T13:30:45;5.75;;;2.15;;
21671;SDS011;10997;52.242;8.168;2024-02-15T13:35:46;7.57;;;2.42;;
21671;SDS011;10997;52.242;8.168;2024-02-15T13:40:47;6.47;;;2.40;;
21671;SDS011;10997;52.242;8.168;2024-02-15T13:45:52;27.10;;;13.52;;
21671;SDS011;10997;52.242;8.168;2024-02-15T13:50:53;7.90;;;4.30;;
21671;SDS011;10997;52.242;8.168;2024-02-15T13:55:54;6.65;;;3.42;;
21671;SDS011;10997;52.242;8.168;2024-02-15T14:00:55;12.50;;;9.55;;
21671;SDS011;10997;52.242;8.168;2024-02-15T14:05:57;8.52;;;3.42;;
21671;SDS011;10997;52.242;8.168;2024-02-15T14:10:58;6.03;;;2.40;;
21671;SDS011;10997;52.242;8.168;2024-02-15T14:15:58;6.85;;;2.22;;
21671;SDS011;10997;52.242;8.168;2024-02-15T14:21:00;8.27;;;2.35;;
21671;SDS011;10997;52.242;8.168;2024-02-15T14:26:00;6.63;;;2.60;;
21671;SDS011;10997;52.242;8.168;2024-02-15T14:31:02;4.57;;;2.30;;
21671;SDS011;10997;52.242;8.168;2024-02-15T14:36:21;6.43;;;2.50;;
21671;SDS011;10997;52.242;8.168;2024-02-15T14:41:22;6.35;;;2.58;;
21671;SDS011;10997;52.242;8.168;2024-02-15T14:46:23;8.27;;;3.10;;
21671;SDS011;10997;52.242;8.168;2024-02-15T14:51:24;7.03;;;2.50;;
21671;SDS011;10997;52.242;8.168;2024-02-15T14:56:25;5.93;;;2.53;;
21671;SDS011;10997;52.242;8.168;2024-02-15T15:01:26;8.52;;;2.40;;
21671;SDS011;10997;52.242;8.168;2024-02-15T15:06:27;6.45;;;2.88;;
21671;SDS011;10997;52.242;8.168;2024-02-15T15:11:46;7.20;;;2.25;;
21671;SDS011;10997;52.242;8.168;2024-02-15T15:17:05;9.35;;;2.60;;
21671;SDS011;10997;52.242;8.168;2024-02-15T15:22:06;12.85;;;3.33;;
21671;SDS011;10997;52.242;8.168;2024-02-15T15:27:07;8.15;;;2.72;;
21671;SDS011;10997;52.242;8.168;2024-02-15T15:32:08;6.72;;;2.42;;
21671;SDS011;10997;52.242;8.168;2024-02-15T15:37:08;6.72;;;2.40;;
21671;SDS011;10997;52.242;8.168;2024-02-15T15:42:12;6.75;;;2.45;;
21671;SDS011;10997;52.242;8.168;2024-02-15T15:47:12;6.80;;;2.78;;
21671;SDS011;10997;52.242;8.168;2024-02-15T15:52:13;16.15;;;6.47;;
21671;SDS011;10997;52.242;8.168;2024-02-15T15:57:14;8.15;;;2.97;;
21671;SDS011;10997;52.242;8.168;2024-02-15T16:02:14;10.48;;;3.72;;
21671;SDS011;10997;52.242;8.168;2024-02-15T16:07:17;9.82;;;3.25;;
21671;SDS011;10997;52.242;8.168;2024-02-15T16:12:18;8.45;;;3.20;;
21671;SDS011;10997;52.242;8.168;2024-02-15T16:17:21;9.38;;;3.10;;
21671;SDS011;10997;52.242;8.168;2024-02-15T16:22:22;9.25;;;3.65;;
21671;SDS011;10997;52.242;8.168;2024-02-15T16:27:23;9.07;;;3.13;;
21671;SDS011;10997;52.242;8.168;2024-02-15T16:32:23;6.63;;;3.10;;
21671;SDS011;10997;52.242;8.168;2024-02-15T16:37:24;6.90;;;2.70;;
21671;SDS011;10997;52.242;8.168;2024-02-15T16:42:25;8.10;;;3.70;;
21671;SDS011;10997;52.242;8.168;2024-02-15T16:47:27;12.50;;;6.68;;
21671;SDS011;10997;52.242;8.168;2024-02-15T16:52:27;8.70;;;4.68;;
21671;SDS011;10997;52.242;8.168;2024-02-15T16:57:28;9.02;;;4.30;;
21671;SDS011;10997;52.242;8.168;2024-02-15T17:02:29;8.43;;;2.92;;
21671;SDS011;10997;52.242;8.168;2024-02-15T17:07:30;9.13;;;3.40;;
21671;SDS011;10997;52.242;8.168;2024-02-15T17:12:31;11.50;;;4.28;;
21671;SDS011;10997;52.242;8.168;2024-02-15T17:17:32;7.28;;;3.13;;
21671;SDS011;10997;52.242;8.168;2024-02-15T17:22:37;9.23;;;3.17;;
21671;SDS011;10997;52.242;8.168;2024-02-15T17:27:38;8.98;;;3.75;;
21671;SDS011;10997;52.242;8.168;2024-02-15T17:32:39;11.52;;;3.47;;
21671;SDS011;10997;52.242;8.168;2024-02-15T17:37:41;8.30;;;3.25;;
21671;SDS011;10997;52.242;8.168;2024-02-15T17:42:42;7.35;;;2.97;;
21671;SDS011;10997;52.242;8.168;2024-02-15T17:47:44;8.73;;;3.10;;
21671;SDS011;10997;52.242;8.168;2024-02-15T17:52:45;6.13;;;2.60;;
21671;SDS011;10997;52.242;8.168;2024-02-15T17:57:47;10.07;;;4.30;;
21671;SDS011;10997;52.242;8.168;2024-02-15T18:02:48;8.90;;;3.50;;
21671;SDS011;10997;52.242;8.168;2024-02-15T18:07:49;13.40;;;6.28;;
21671;SDS011;10997;52.242;8.168;2024-02-15T18:12:50;36.25;;;19.83;;
21671;SDS011;10997;52.242;8.168;2024-02-15T18:17:53;22.23;;;13.93;;
21671;SDS011;10997;52.242;8.168;2024-02-15T18:22:54;16.90;;;10.73;;
21671;SDS011;10997;52.242;8.168;2024-02-15T18:27:56;12.32;;;8.27;;
21671;SDS011;10997;52.242;8.168;2024-02-15T18:32:56;16.80;;;10.95;;
21671;SDS011;10997;52.242;8.168;2024-02-15T18:37:59;10.50;;;5.75;;
21671;SDS011;10997;52.242;8.168;2024-02-15T18:42:59;7.55;;;4.68;;
21671;SDS011;10997;52.242;8.168;2024-02-15T18:48:00;9.90;;;3.53;;
21671;SDS011;10997;52.242;8.168;2024-02-15T18:53:02;7.47;;;3.58;;
21671;SDS011;10997;52.242;8.168;2024-02-15T18:58:04;7.10;;;3.35;;
21671;SDS011;10997;52.242;8.168;2024-02-15T19:03:05;8.68;;;3.50;;
21671;SDS011;10997;52.242;8.168;2024-02-15T19:08:06;9.80;;;3.65;;
21671;SDS011;10997;52.242;8.168;2024-02-15T19:13:07;7.78;;;4.25;;
21671;SDS011;10997;52.242;8.168;2024-02-15T19:18:08;10.40;;;5.47;;
21671;SDS011;10997;52.242;8.168;2024-02-15T19:23:08;8.68;;;4.65;;
21671;SDS011;10997;52.242;8.168;2024-02-15T19:28:09;9.20;;;3.33;;
21671;SDS011;10997;52.242;8.168;2024-02-15T19:33:10;6.75;;;3.80;;
21671;SDS011;10997;52.242;8.168;2024-02-15T19:38:10;7.03;;;4.07;;
21671;SDS011;10997;52.242;8.168;2024-02-15T19:43:11;6.25;;;3.60;;
21671;SDS011;10997;52.242;8.168;2024-02-15T19:48:11;9.30;;;3.65;;
21671;SDS011;10997;52.242;8.168;2024-02-15T19:53:12;8.70;;;4.00;;
21671;SDS011;10997;52.242;8.168;2024-02-15T19:58:14;10.57;;;4.10;;
21671;SDS011;10997;52.242;8.168;2024-02-15T20:03:14;13.48;;;5.20;;
21671;SDS011;10997;52.242;8.168;2024-02-15T20:08:15;7.97;;;4.93;;
21671;SDS011;10997;52.242;8.168;2024-02-15T20:13:15;9.70;;;5.10;;
21671;SDS011;10997;52.242;8.168;2024-02-15T20:18:16;10.77;;;5.63;;
21671;SDS011;10997;52.242;8.168;2024-02-15T20:23:17;12.73;;;8.18;;
21671;SDS011;10997;52.242;8.168;2024-02-15T20:28:17;10.55;;;6.57;;
21671;SDS011;10997;52.242;8.168;2024-02-15T20:33:18;8.88;;;5.63;;
21671;SDS011;10997;52.242;8.168;2024-02-15T20:38:23;11.70;;;5.78;;
21671;SDS011;10997;52.242;8.168;2024-02-15T20:43:28;10.43;;;5.70;;
21671;SDS011;10997;52.242;8.168;2024-02-15T20:48:29;11.40;;;6.35;;
21671;SDS011;10997;52.242;8.168;2024-02-15T20:53:30;54.22;;;28.35;;
21671;SDS011;10997;52.242;8.168;2024-02-15T20:58:31;29.45;;;15.25;;
21671;SDS011;10997;52.242;8.168;2024-02-15T21:03:32;28.42;;;16.77;;
21671;SDS011;10997;52.242;8.168;2024-02-15T21:08:32;11.00;;;8.00;;
21671;SDS011;10997;52.242;8.168;2024-02-15T21:13:33;12.70;;;7.47;;
21671;SDS011;10997;52.242;8.168;2024-02-15T21:18:34;13.63;;;7.32;;
21671;SDS011;10997;52.242;8.168;2024-02-15T21:23:35;15.15;;;8.50;;
21671;SDS011;10997;52.242;8.168;2024-02-15T21:28:39;11.65;;;7.25;;
21671;SDS011;10997;52.242;8.168;2024-02-15T21:33:44;8.90;;;6.65;;
21671;SDS011;10997;52.242;8.168;2024-02-15T21:38:45;12.48;;;6.03;;
21671;SDS011;10997;52.242;8.168;2024-02-15T21:43:46;8.23;;;5.15;;
21671;SDS011;10997;52.242;8.168;2024-02-15T21:48:46;8.60;;;4.40;;
21671;SDS011;10997;52.242;8.168;2024-02-15T22:04:47;7.15;;;3.47;;
21671;SDS011;10997;52.242;8.168;2024-02-15T22:09:48;7.65;;;3.40;;
21671;SDS011;10997;52.242;8.168;2024-02-15T22:14:50;8.00;;;3.53;;
21671;SDS011;10997;52.242;8.168;2024-02-15T22:19:52;9.13;;;3.33;;
21671;SDS011;10997;52.242;8.168;2024-02-15T22:24:53;10.43;;;3.40;;
21671;SDS011;10997;52.242;8.168;2024-02-15T22:29:54;8.02;;;3.10;;
21671;SDS011;10997;52.242;8.168;2024-02-15T22:34:55;5.63;;;2.85;;
21671;SDS011;10997;52.242;8.168;2024-02-15T22:39:55;8.13;;;3.65;;
21671;SDS011;10997;52.242;8.168;2024-02-15T22:44:58;12.43;;;5.40;;
21671;SDS011;10997;52.242;8.168;2024-02-15T22:49:59;11.75;;;6.47;;
21671;SDS011;10997;52.242;8.168;2024-02-15T22:55:00;7.85;;;4.00;;
21671;SDS011;10997;52.242;8.168;2024-02-15T23:00:01;6.95;;;2.95;;
21671;SDS011;10997;52.242;8.168;2024-02-15T23:05:05;5.97;;;2.80;;
21671;SDS011;10997;52.242;8.168;2024-02-15T23:10:08;7.07;;;3.10;;
21671;SDS011;10997;52.242;8.168;2024-02-15T23:15:09;6.05;;;2.90;;
21671;SDS011;10997;52.242;8.168;2024-02-15T23:20:14;8.93;;;3.25;;
21671;SDS011;10997;52.242;8.168;2024-02-15T23:25:14;4.88;;;2.55;;
21671;SDS011;10997;52.242;8.168;2024-02-15T23:30:15;5.90;;;2.67;;
21671;SDS011;10997;52.242;8.168;2024-02-15T23:35:16;10.13;;;3.00;;
21671;SDS011;10997;52.242;8.168;2024-02-15T23:40:16;7.55;;;2.90;;
21671;SDS011;10997;52.242;8.168;2024-02-15T23:45:22;8.07;;;4.65;;
21671;SDS011;10997;52.242;8.168;2024-02-15T23:50:23;12.93;;;4.70;;
21671;SDS011;10997;52.242;8.168;2024-02-15T23:55:26;11.05;;;4.32;;
